Big Piney, WY weather

Big Piney-Marbleton Airport (AMOS), Big Piney, WY: 2/08/2016 12:53
Visibility10 statute milesclear sky
View 7-Day Forecast
Area Summary
Sky/CloudsSky Clear
Weather [last 24 hours]None
Pressure30.52 in.Hg (1034 hPa)
Dew Point25 F (-3.9 C)
Relative Humidity59.2 %
Temperature37.9 F (3.3 C)red thermometer
Wind Chill28.8 F (-1.78 C)
Reading TimeMinimum to Maximum Temperature
6-hr ending 2/8@10:5319 F to 36 F (-7.2 C to 2.2 C)
6-hr ending 2/8@04:5319 F to 28 F (-7.2 C to -2.2 C)
6-hr ending 2/7@22:5323 F to 33.1 F (-5 C to 0.6 C)
6-hr ending 2/7@16:5333.1 F to 37 F (0.6 C to 2.8 C)
24-hr ending 2/7@23:5319 F to 37 F (-7.2 C to 2.8 C)
Wind16.1 MPH (14 KT) green arrow pointing at 0 degrees
Wind FromNorth (010 Degrees)
Rolling 24-hr Peak Wind29.9 MPH (26 KT) on 2/7@20:11
Rolling 24-hr Peak Wind FromNorth (360 Degrees)
Twilight Begins06:55Sunshine Yesterday
Sunrise07:24N/A
Sunset17:45
Twilight Ends18:15
METARKBPI 081953Z AUTO 01014KT 10SM CLR 03/M04 A3052 RMK AO2 SLP339 T00331039
Tags: